Time;durP1;ratioP1;P1;durP2;ratioP2;P2;SDS_P1;SDS_P2;PMS_P1;PMS_P2;Temp;Humidity;BMP_temperature;BMP_pressure;BME280_temperature;BME280_humidity;BME280_pressure;Samples;Min_cycle;Max_cycle;Signal;HPM_P1;HPM_P2
2023/05/07 00:09:50;;;;;;;10.30;9.23;;;;;;;11.54;74.57;100555.41;21002280;28;20226;-80
2023/05/07 00:19:52;;;;;;;9.57;8.77;;;;;;;11.31;75.85;100559.72;21003057;28;20178;-80
2023/05/07 00:29:55;;;;;;;8.98;7.82;;;;;;;11.55;74.74;100568.38;21001584;28;20207;-80
2023/05/07 00:39:57;;;;;;;10.18;9.07;;;;;;;11.43;75.74;100557.00;20975543;28;20264;-80
2023/05/07 00:49:59;;;;;;;13.55;10.07;;;;;;;11.58;75.06;100564.88;20978504;28;20223;-81
2023/05/07 01:00:03;;;;;;;16.47;8.57;;;;;;;11.59;74.83;100560.88;20958442;28;20465;-79
2023/05/07 01:10:06;;;;;;;10.57;9.45;;;;;;;11.56;75.07;100541.78;20987094;28;20682;-80
2023/05/07 01:20:10;;;;;;;12.40;9.68;;;;;;;11.69;74.14;100537.00;20951501;28;20281;-80
2023/05/07 01:30:13;;;;;;;12.90;11.60;;;;;;;11.47;75.16;100532.53;20927074;28;20492;-80
2023/05/07 01:40:16;;;;;;;13.48;12.18;;;;;;;11.52;74.34;100540.78;20974086;28;20205;-81
2023/05/07 01:50:19;;;;;;;13.90;12.55;;;;;;;11.57;74.81;100532.13;20951953;28;20272;-80
2023/05/07 02:00:21;;;;;;;17.42;15.30;;;;;;;11.32;76.15;100545.25;20950654;28;20191;-82
2023/05/07 02:10:23;;;;;;;25.20;22.73;;;;;;;11.48;75.14;100537.00;20980257;28;20242;-81
2023/05/07 02:20:26;;;;;;;36.38;32.60;;;;;;;11.37;75.39;100535.78;21003523;28;20263;-81
2023/05/07 02:30:28;;;;;;;33.38;30.00;;;;;;;11.48;74.79;100542.66;20953140;28;20284;-80
2023/05/07 02:40:38;;;;;;;28.93;25.93;;;;;;;11.19;75.97;100537.00;20982119;28;20187;-80
2023/05/07 02:50:40;;;;;;;22.00;19.75;;;;;;;11.09;75.97;100529.75;21000088;28;20611;-80
2023/05/07 03:00:43;;;;;;;16.05;14.35;;;;;;;11.42;74.73;100524.25;20967627;28;20191;-80
2023/05/07 03:10:55;;;;;;;13.13;11.82;;;;;;;11.28;74.78;100532.13;20955122;28;20215;-80
2023/05/07 03:20:58;;;;;;;15.40;11.10;;;;;;;11.17;75.12;100534.53;20935724;28;20604;-80
2023/05/07 03:31:00;;;;;;;13.88;11.35;;;;;;;11.06;75.73;100529.59;20989922;28;20219;-80
2023/05/07 03:41:04;;;;;;;13.95;11.77;;;;;;;11.13;75.05;100538.34;20982109;28;20231;-80
2023/05/07 03:51:07;;;;;;;12.00;10.73;;;;;;;10.85;76.32;100552.16;20965832;28;20260;-80
2023/05/07 04:01:09;;;;;;;13.88;11.35;;;;;;;10.97;75.75;100555.09;20965844;28;20187;-80
2023/05/07 04:11:12;;;;;;;12.00;10.90;;;;;;;11.09;75.10;100551.53;20974402;28;20211;-80
2023/05/07 04:21:18;;;;;;;15.27;10.68;;;;;;;11.01;75.61;100555.22;20974457;28;20583;-81
2023/05/07 04:31:22;;;;;;;10.75;9.65;;;;;;;10.95;75.65;100552.59;20963502;28;20248;-81
2023/05/07 04:41:27;;;;;;;10.07;9.18;;;;;;;11.04;75.21;100548.88;20959854;28;20281;-81
2023/05/07 04:51:32;;;;;;;16.90;9.25;;;;;;;10.99;76.32;100564.06;20868063;28;20287;-80
2023/05/07 05:01:35;;;;;;;10.07;9.07;;;;;;;11.42;74.84;100572.31;20908310;28;20248;-80
2023/05/07 05:11:38;;;;;;;8.32;7.63;;;;;;;11.51;74.36;100575.09;20898356;28;20264;-80
2023/05/07 05:21:40;;;;;;;8.35;7.55;;;;;;;11.50;74.32;100571.44;20904530;28;20649;-80
2023/05/07 05:31:44;;;;;;;8.75;7.80;;;;;;;11.88;73.47;100576.97;20908588;28;20277;-80
2023/05/07 05:41:47;;;;;;;8.27;7.47;;;;;;;11.89;72.46;100574.97;20933400;28;20565;-80
2023/05/07 05:51:49;;;;;;;8.65;7.10;;;;;;;11.73;73.48;100586.06;20990415;28;20214;-81
2023/05/07 06:01:51;;;;;;;6.80;6.10;;;;;;;12.14;70.84;100582.41;20974136;28;20213;-80
2023/05/07 06:11:54;;;;;;;6.82;5.93;;;;;;;12.39;69.95;100589.84;20973740;28;20272;-81
2023/05/07 06:21:56;;;;;;;6.65;4.63;;;;;;;12.74;68.69;100598.78;20964524;28;20195;-81
2023/05/07 06:32:11;;;;;;;7.78;4.78;;;;;;;12.87;69.35;100598.78;20988512;28;20223;-80
2023/05/07 06:42:15;;;;;;;4.82;3.38;;;;;;;13.16;68.06;100597.81;20987130;28;20211;-80
2023/05/07 06:52:21;;;;;;;6.15;3.33;;;;;;;13.19;66.83;100614.09;20948140;28;20245;-81
2023/05/07 07:02:25;;;;;;;4.00;3.70;;;;;;;13.64;66.99;100611.94;20986738;28;20583;-81
2023/05/07 07:12:28;;;;;;;4.32;3.95;;;;;;;13.17;69.33;100610.78;21020912;28;20219;-79
2023/05/07 07:22:31;;;;;;;5.15;4.38;;;;;;;13.27;68.86;100613.16;20985677;28;20183;-81
2023/05/07 07:32:34;;;;;;;5.55;4.68;;;;;;;13.53;68.65;100615.63;20988096;28;20219;-81
2023/05/07 07:42:36;;;;;;;6.28;4.78;;;;;;;13.45;68.94;100614.59;20986626;28;20268;-81
2023/05/07 07:52:39;;;;;;;5.75;4.65;;;;;;;14.13;65.56;100603.34;20968382;28;20245;-81
2023/05/07 08:02:42;;;;;;;5.13;4.72;;;;;;;13.88;66.86;100622.44;20974752;28;20195;-81
2023/05/07 08:12:48;;;;;;;6.15;4.40;;;;;;;14.25;64.57;100628.00;20975639;28;20218;-82
2023/05/07 08:22:51;;;;;;;5.18;4.40;;;;;;;14.62;62.58;100628.75;20995704;28;20187;-82
2023/05/07 08:32:54;;;;;;;7.50;6.05;;;;;;;14.30;65.23;100637.13;20960294;28;20299;-81
2023/05/07 08:42:57;;;;;;;7.05;5.93;;;;;;;14.74;63.08;100631.50;21002362;28;20265;-82
2023/05/07 08:53:00;;;;;;;13.52;9.05;;;;;;;14.64;62.77;100644.22;20961744;28;20226;-80
2023/05/07 09:03:03;;;;;;;9.13;8.23;;;;;;;15.84;59.40;100631.50;20980051;28;20191;-83
2023/05/07 09:13:06;;;;;;;10.10;7.88;;;;;;;15.64;60.05;100624.94;20937230;28;20280;-82
2023/05/07 09:23:09;;;;;;;9.32;7.43;;;;;;;15.27;60.90;100627.28;20993430;28;20187;-82
2023/05/07 09:33:12;;;;;;;10.07;7.35;;;;;;;15.77;58.31;100629.31;20985366;28;20273;-82
2023/05/07 09:43:19;;;;;;;9.13;8.20;;;;;;;15.48;59.79;100629.81;20953123;28;20264;-82
2023/05/07 09:53:30;;;;;;;7.88;6.63;;;;;;;15.60;55.82;100629.72;20977865;28;20284;-82
2023/05/07 10:03:40;;;;;;;8.38;6.90;;;;;;;17.07;52.89;100623.09;20957174;28;20241;-81
2023/05/07 10:13:43;;;;;;;8.40;7.60;;;;;;;16.68;55.45;100616.69;20965615;28;20230;-81
2023/05/07 10:23:50;;;;;;;8.50;7.65;;;;;;;17.54;52.65;100606.41;20952310;28;20265;-82
2023/05/07 10:33:54;;;;;;;7.85;5.78;;;;;;;17.36;49.59;100613.03;20938207;28;20558;-82
2023/05/07 10:44:01;;;;;;;8.23;7.43;;;;;;;17.10;49.73;100616.63;20951139;28;20516;-82
2023/05/07 10:54:10;;;;;;;7.93;5.20;;;;;;;17.51;49.19;100606.34;20935174;28;20223;-81
2023/05/07 11:04:24;;;;;;;5.15;4.55;;;;;;;17.60;49.83;100609.78;20954295;28;20202;-82
2023/05/07 11:14:46;;;;;;;7.18;5.70;;;;;;;16.83;48.51;100602.31;20954061;28;20227;-82
2023/05/07 11:24:54;;;;;;;5.55;4.85;;;;;;;16.74;48.56;100603.75;20942128;28;20199;-81
2023/05/07 11:34:59;;;;;;;6.45;5.85;;;;;;;17.11;53.30;100606.88;20936282;28;20215;-80
2023/05/07 11:45:02;;;;;;;8.32;7.38;;;;;;;16.53;51.37;100606.97;20964064;28;20223;-80
2023/05/07 11:55:04;;;;;;;9.90;8.07;;;;;;;16.83;52.18;100607.19;20953292;28;20683;-79
2023/05/07 12:05:07;;;;;;;9.27;8.10;;;;;;;17.44;48.72;100603.38;20962308;28;20619;-80
2023/05/07 12:15:10;;;;;;;7.43;6.68;;;;;;;17.41;50.46;100604.97;20951103;28;20211;-81
2023/05/07 12:25:18;;;;;;;6.38;5.30;;;;;;;17.45;50.19;100610.75;20964775;28;20191;-81
2023/05/07 12:35:31;;;;;;;6.53;5.55;;;;;;;16.84;50.12;100608.81;20982282;28;20519;-81
2023/05/07 12:45:38;;;;;;;5.82;5.32;;;;;;;17.03;48.32;100608.78;20950622;28;20276;-85
2023/05/07 12:55:45;;;;;;;6.00;5.43;;;;;;;16.93;51.18;100635.09;20952272;28;20214;-81
2023/05/07 13:05:47;;;;;;;5.30;4.80;;;;;;;17.30;48.46;100635.38;20979214;28;20195;-80
2023/05/07 13:15:50;;;;;;;6.80;5.22;;;;;;;16.48;51.03;100639.44;20956484;28;20214;-81
2023/05/07 13:25:55;;;;;;;6.20;5.60;;;;;;;16.86;51.66;100629.22;20971399;28;20187;-81
2023/05/07 13:36:00;;;;;;;6.55;5.95;;;;;;;16.92;49.82;100644.84;20973739;28;20245;-81
2023/05/07 13:46:02;;;;;;;5.03;4.53;;;;;;;16.34;53.22;100642.00;20927569;28;20219;-81
2023/05/07 13:56:04;;;;;;;5.55;4.70;;;;;;;16.99;49.22;100642.09;20967330;28;20210;-82
2023/05/07 14:06:06;;;;;;;5.82;4.32;;;;;;;16.54;52.20;100651.38;20987139;28;20773;-81
2023/05/07 14:16:09;;;;;;;5.25;4.22;;;;;;;16.70;48.17;100643.59;20978690;28;20218;-81
2023/05/07 14:26:11;;;;;;;8.02;6.18;;;;;;;16.09;52.39;100640.63;20969839;28;20546;-82
2023/05/07 14:36:15;;;;;;;7.20;6.47;;;;;;;16.37;54.13;100646.94;20946965;28;20220;-82
2023/05/07 14:46:17;;;;;;;11.77;6.43;;;;;;;16.41;52.51;100656.41;20970886;28;20211;-81
2023/05/07 14:56:20;;;;;;;8.35;6.03;;;;;;;16.33;53.97;100654.59;20958114;28;20685;-82
2023/05/07 15:06:22;;;;;;;6.80;6.10;;;;;;;16.95;50.88;100656.31;20970485;28;20469;-81
2023/05/07 15:16:25;;;;;;;6.63;4.13;;;;;;;16.32;56.00;100667.19;20961849;28;20620;-80
2023/05/07 15:26:27;;;;;;;7.05;3.90;;;;;;;16.22;57.17;100680.00;20958089;28;20613;-82
2023/05/07 15:36:30;;;;;;;3.20;2.90;;;;;;;16.17;56.47;100685.19;20963657;28;20218;-80
2023/05/07 15:46:32;;;;;;;4.43;2.70;;;;;;;15.72;56.85;100689.38;20913721;28;20266;-79
2023/05/07 15:56:34;;;;;;;3.97;2.50;;;;;;;15.58;58.18;100684.16;20875829;28;20223;-78
2023/05/07 16:06:36;;;;;;;4.32;3.60;;;;;;;15.92;56.97;100685.41;20918908;28;20910;-81
2023/05/07 16:16:39;;;;;;;2.90;2.55;;;;;;;15.85;56.68;100699.44;20888697;28;20215;-80
2023/05/07 16:26:42;;;;;;;4.22;2.65;;;;;;;15.78;58.49;100687.06;20905083;28;20193;-79
2023/05/07 16:36:44;;;;;;;3.22;2.90;;;;;;;15.91;57.38;100672.38;20902146;28;20223;-80
2023/05/07 16:46:47;;;;;;;3.45;2.42;;;;;;;16.11;55.69;100683.81;20923814;28;20631;-80
2023/05/07 16:56:49;;;;;;;3.63;2.08;;;;;;;15.87;54.98;100679.97;20968136;28;20219;-82
2023/05/07 17:06:52;;;;;;;2.58;2.10;;;;;;;16.36;52.81;100679.50;20942427;28;20195;-80
2023/05/07 17:16:54;;;;;;;2.85;1.48;;;;;;;15.79;55.15;100675.31;20968856;28;20241;-80
2023/05/07 17:26:56;;;;;;;2.80;1.70;;;;;;;15.47;55.68;100697.28;20972638;28;20671;-79
2023/05/07 17:36:59;;;;;;;2.22;1.90;;;;;;;15.48;55.10;100707.47;20934010;28;20709;-79
2023/05/07 17:47:02;;;;;;;1.73;1.63;;;;;;;15.29;57.34;100734.97;20919747;28;20245;-79
2023/05/07 17:57:05;;;;;;;3.58;1.77;;;;;;;15.21;55.63;100754.69;20878080;28;20228;-79
2023/05/07 18:07:07;;;;;;;52.35;41.92;;;;;;;15.25;58.98;100760.50;20873934;28;20188;-80
2023/05/07 18:17:09;;;;;;;2.05;1.80;;;;;;;15.44;57.40;100762.63;20883807;28;20224;-80
2023/05/07 18:27:12;;;;;;;4.03;1.70;;;;;;;15.01;61.04;100777.66;20878287;28;20223;-79
2023/05/07 18:37:14;;;;;;;2.75;2.42;;;;;;;15.03;60.77;100787.47;20873206;28;20278;-80
2023/05/07 18:47:17;;;;;;;3.03;2.45;;;;;;;14.92;63.33;100792.00;20925900;28;20234;-80
2023/05/07 18:57:19;;;;;;;5.05;3.80;;;;;;;14.56;63.75;100800.66;20966054;28;20206;-79
2023/05/07 19:07:21;;;;;;;5.00;4.00;;;;;;;14.68;64.74;100809.13;20963895;28;20273;-79
2023/05/07 19:17:23;;;;;;;7.57;5.00;;;;;;;14.55;64.77;100816.88;20945388;28;20347;-79
2023/05/07 19:27:26;;;;;;;7.80;7.00;;;;;;;14.19;67.58;100829.06;20982275;28;20553;-80
2023/05/07 19:37:28;;;;;;;9.85;8.80;;;;;;;13.98;67.11;100840.50;20978497;28;20276;-80
2023/05/07 19:47:31;;;;;;;10.68;9.57;;;;;;;14.00;64.23;100851.53;20980910;28;20663;-80
2023/05/07 19:57:33;;;;;;;11.80;10.45;;;;;;;13.60;64.14;100860.63;20964643;28;20241;-80
2023/05/07 20:07:35;;;;;;;13.43;12.02;;;;;;;13.64;63.23;100861.59;20965355;28;20719;-80
2023/05/07 20:17:37;;;;;;;15.07;12.65;;;;;;;13.77;62.33;100865.31;20976561;28;20215;-80
2023/05/07 20:27:40;;;;;;;13.50;12.00;;;;;;;12.87;62.46;100877.31;20996377;28;20217;-81
2023/05/07 20:37:42;;;;;;;16.35;12.95;;;;;;;13.18;62.80;100890.28;20978571;28;20219;-80
2023/05/07 20:47:44;;;;;;;14.00;12.57;;;;;;;13.18;62.41;100891.09;20977429;28;20223;-80
2023/05/07 20:57:47;;;;;;;14.95;13.40;;;;;;;13.17;61.95;100909.28;20960624;28;20218;-80
2023/05/07 21:07:49;;;;;;;14.65;13.15;;;;;;;13.22;61.45;100916.72;20976082;28;20218;-80
2023/05/07 21:17:51;;;;;;;15.75;14.02;;;;;;;12.73;62.41;100936.22;21008083;28;20607;-80
2023/05/07 21:27:56;;;;;;;14.18;12.68;;;;;;;12.71;61.16;100938.56;20972900;28;20195;-80
2023/05/07 21:37:59;;;;;;;17.13;13.98;;;;;;;12.91;60.08;100937.78;20988532;28;20207;-80
2023/05/07 21:48:01;;;;;;;15.20;13.60;;;;;;;12.67;63.21;100941.28;20994576;28;20269;-80
2023/05/07 21:58:04;;;;;;;15.82;14.30;;;;;;;12.37;64.31;100929.09;20978106;28;20218;-80
2023/05/07 22:08:07;;;;;;;16.48;14.80;;;;;;;12.19;64.43;100941.66;20977202;28;20199;-81
2023/05/07 22:18:10;;;;;;;16.88;14.95;;;;;;;12.24;64.75;100930.16;20988370;28;20219;-80
2023/05/07 22:28:12;;;;;;;16.38;14.68;;;;;;;12.19;63.78;100935.16;20975176;28;20195;-81
2023/05/07 22:38:14;;;;;;;16.50;14.75;;;;;;;12.22;64.89;100929.66;20970045;28;20233;-81
2023/05/07 22:48:16;;;;;;;17.03;15.23;;;;;;;12.27;64.64;100932.31;20917883;28;20288;-81
2023/05/07 22:58:18;;;;;;;17.08;15.38;;;;;;;12.30;64.34;100928.78;20913773;28;20207;-81
2023/05/07 23:08:20;;;;;;;17.35;15.23;;;;;;;11.98;65.53;100935.06;20906377;28;20254;-80
2023/05/07 23:18:22;;;;;;;18.85;16.15;;;;;;;11.88;65.56;100935.44;20884637;28;20216;-80
2023/05/07 23:28:24;;;;;;;17.02;14.77;;;;;;;11.82;65.47;100931.09;20900489;28;20191;-80
2023/05/07 23:38:27;;;;;;;17.13;15.38;;;;;;;11.59;64.44;100931.31;20884088;28;20344;-80
2023/05/07 23:48:29;;;;;;;17.42;15.73;;;;;;;11.79;63.92;100937.41;20955775;28;20279;-81
2023/05/07 23:58:31;;;;;;;17.75;15.82;;;;;;;11.45;65.63;100952.44;20967304;28;20214;-80
